createdAt,value
2023-05-04T00:00:15.337Z,12.80
2023-05-04T00:02:45.071Z,12.70
2023-05-04T00:05:14.520Z,12.60
2023-05-04T00:07:43.826Z,12.60
2023-05-04T00:10:13.322Z,12.50
2023-05-04T00:12:43.971Z,12.40
2023-05-04T00:15:13.145Z,12.40
2023-05-04T00:17:42.460Z,12.40
2023-05-04T00:20:14.086Z,12.30
2023-05-04T00:22:43.352Z,12.30
2023-05-04T00:25:12.605Z,12.30
2023-05-04T00:27:43.215Z,12.20
2023-05-04T00:30:13.180Z,12.20
2023-05-04T00:32:42.678Z,12.10
2023-05-04T00:35:12.615Z,12.10
2023-05-04T00:37:43.698Z,12.10
2023-05-04T00:40:13.871Z,12.00
2023-05-04T00:42:44.607Z,12.00
2023-05-04T00:45:15.554Z,12.00
2023-05-04T00:47:46.121Z,12.00
2023-05-04T00:50:16.363Z,12.00
2023-05-04T00:52:47.900Z,11.90
2023-05-04T00:55:17.487Z,11.90
2023-05-04T00:57:49.417Z,11.80
2023-05-04T01:00:19.080Z,11.80
2023-05-04T01:02:48.594Z,11.80
2023-05-04T01:05:18.000Z,11.70
2023-05-04T01:07:54.805Z,11.70
2023-05-04T01:10:39.306Z,11.70
2023-05-04T01:13:12.811Z,11.70
2023-05-04T01:15:43.938Z,11.60
2023-05-04T01:18:13.172Z,11.60
2023-05-04T01:20:42.364Z,11.60
2023-05-04T01:23:13.491Z,11.50
2023-05-04T01:25:52.523Z,11.50
2023-05-04T01:28:28.596Z,11.50
2023-05-04T01:31:01.848Z,11.50
2023-05-04T01:33:33.058Z,11.50
2023-05-04T01:36:02.357Z,11.50
2023-05-04T01:38:32.966Z,11.40
2023-05-04T01:41:02.469Z,11.40
2023-05-04T01:43:31.990Z,11.40
2023-05-04T01:46:01.364Z,11.30
2023-05-04T01:48:30.607Z,11.30
2023-05-04T01:51:00.120Z,11.30
2023-05-04T01:53:29.387Z,11.30
2023-05-04T01:56:00.225Z,11.20
2023-05-04T01:58:29.298Z,11.20
2023-05-04T02:00:59.256Z,11.20
2023-05-04T02:03:31.280Z,11.20
2023-05-04T02:06:00.715Z,11.20
2023-05-04T02:08:29.972Z,11.10
2023-05-04T02:11:00.668Z,11.10
2023-05-04T02:13:29.870Z,11.10
2023-05-04T02:15:58.936Z,11.10
2023-05-04T02:18:28.350Z,11.00
2023-05-04T02:20:57.500Z,11.00
2023-05-04T02:23:27.140Z,11.00
2023-05-04T02:25:56.923Z,11.00
2023-05-04T02:28:27.825Z,10.90
2023-05-04T02:30:57.190Z,10.90
2023-05-04T02:33:26.345Z,10.90
2023-05-04T02:35:55.433Z,10.80
2023-05-04T02:38:24.582Z,10.80
2023-05-04T02:40:53.811Z,10.80
2023-05-04T02:43:22.911Z,10.80
2023-05-04T02:45:54.505Z,10.70
2023-05-04T02:48:25.450Z,10.70
2023-05-04T02:50:56.534Z,10.70
2023-05-04T02:53:26.364Z,10.60
2023-05-04T02:55:55.714Z,10.60
2023-05-04T02:58:24.899Z,10.50
2023-05-04T03:00:57.184Z,10.50
2023-05-04T03:03:26.916Z,10.50
2023-05-04T03:05:56.074Z,10.50
2023-05-04T03:08:25.221Z,10.40
2023-05-04T03:10:55.356Z,10.40
2023-05-04T03:13:24.608Z,10.40
2023-05-04T03:15:53.833Z,10.30
2023-05-04T03:18:24.495Z,10.30
2023-05-04T03:20:54.068Z,10.20
2023-05-04T03:23:24.696Z,10.20
2023-05-04T03:25:54.024Z,10.20
2023-05-04T03:28:23.294Z,10.20
2023-05-04T03:30:52.614Z,10.20
2023-05-04T03:33:24.927Z,10.10
2023-05-04T03:35:57.178Z,10.10
2023-05-04T03:38:26.838Z,10.10
2023-05-04T03:40:57.692Z,10.10
2023-05-04T03:43:27.168Z,10.10
2023-05-04T03:45:58.276Z,10.10
2023-05-04T03:48:29.094Z,10.00
2023-05-04T03:50:58.686Z,10.00
2023-05-04T03:53:27.931Z,10.00
2023-05-04T03:55:57.150Z,10.00
2023-05-04T03:58:26.699Z,10.00
2023-05-04T04:00:56.354Z,10.00
2023-05-04T04:03:26.159Z,10.00
2023-05-04T04:05:58.309Z,10.00
2023-05-04T04:08:28.917Z,9.90
2023-05-04T04:10:58.079Z,10.00
2023-05-04T04:13:27.933Z,9.90
2023-05-04T04:15:57.322Z,10.00
2023-05-04T04:18:26.925Z,10.00
2023-05-04T04:20:57.527Z,10.00
2023-05-04T04:23:26.692Z,10.00
2023-05-04T04:25:55.860Z,10.00
2023-05-04T04:28:24.858Z,10.00
2023-05-04T04:30:54.128Z,10.10
2023-05-04T04:33:23.462Z,10.10
2023-05-04T04:35:53.218Z,10.10
2023-05-04T04:38:24.795Z,10.10
2023-05-04T04:40:53.889Z,10.10
2023-05-04T04:43:22.916Z,10.10
2023-05-04T04:45:53.964Z,10.10
2023-05-04T04:48:25.509Z,10.20
2023-05-04T04:50:55.108Z,10.20
2023-05-04T04:53:26.043Z,10.20
2023-05-04T04:55:55.510Z,10.30
2023-05-04T04:58:25.054Z,10.30
2023-05-04T05:00:58.558Z,10.40
2023-05-04T05:03:28.040Z,10.40
2023-05-04T05:05:57.245Z,10.50
2023-05-04T05:08:28.456Z,10.50
2023-05-04T05:10:57.571Z,10.60
2023-05-04T05:13:26.912Z,10.60
2023-05-04T05:15:56.194Z,10.60
2023-05-04T05:18:25.400Z,10.70
2023-05-04T05:20:54.663Z,10.70
2023-05-04T05:23:23.990Z,10.70
2023-05-04T05:25:55.948Z,10.80
2023-05-04T05:28:25.271Z,10.80
2023-05-04T05:30:54.543Z,10.80
2023-05-04T05:33:23.757Z,10.90
2023-05-04T05:35:52.766Z,10.90
2023-05-04T05:38:22.294Z,10.90
2023-05-04T05:40:51.682Z,11.00
2023-05-04T05:43:24.808Z,11.00
2023-05-04T05:45:54.702Z,11.10
2023-05-04T05:48:24.126Z,11.20
2023-05-04T05:50:54.252Z,11.20
2023-05-04T05:53:23.502Z,11.30
2023-05-04T05:55:52.645Z,11.30
2023-05-04T05:58:23.500Z,11.40
2023-05-04T06:00:52.787Z,11.40
2023-05-04T06:03:22.161Z,11.50
2023-05-04T06:05:51.377Z,11.60
2023-05-04T06:08:21.027Z,11.70
2023-05-04T06:10:51.512Z,11.80
2023-05-04T06:13:20.851Z,11.80
2023-05-04T06:15:55.379Z,12.00
2023-05-04T06:18:24.831Z,12.10
2023-05-04T06:20:59.409Z,12.20
2023-05-04T06:23:29.506Z,12.30
2023-05-04T06:25:58.769Z,12.40
2023-05-04T06:28:28.439Z,12.50
2023-05-04T06:30:59.193Z,12.60
2023-05-04T06:33:28.509Z,12.70
2023-05-04T06:35:57.832Z,12.80
2023-05-04T06:38:27.100Z,12.90
2023-05-04T06:40:56.410Z,13.00
2023-05-04T06:43:25.597Z,13.20
2023-05-04T06:45:54.869Z,13.30
2023-05-04T06:48:25.676Z,13.40
2023-05-04T06:50:54.887Z,13.50
2023-05-04T06:53:25.077Z,13.60
2023-05-04T06:55:54.535Z,13.80
2023-05-04T06:58:24.022Z,13.90
2023-05-04T07:00:53.803Z,14.00
2023-05-04T07:03:23.177Z,14.10
2023-05-04T07:05:53.659Z,14.30
2023-05-04T07:08:23.043Z,14.40
2023-05-04T07:10:52.334Z,14.50
2023-05-04T07:13:21.495Z,14.70
2023-05-04T07:15:50.482Z,14.80
2023-05-04T07:18:19.566Z,14.90
2023-05-04T07:20:48.650Z,15.00
2023-05-04T07:23:19.321Z,15.20
2023-05-04T07:25:48.532Z,15.30
2023-05-04T07:28:17.971Z,15.40
2023-05-04T07:30:47.171Z,15.60
2023-05-04T07:33:16.632Z,15.60
2023-05-04T07:35:45.885Z,15.80
2023-05-04T07:38:15.333Z,15.90
2023-05-04T07:40:46.071Z,16.00
2023-05-04T07:43:18.315Z,16.10
2023-05-04T07:45:47.640Z,16.30
2023-05-04T07:48:18.074Z,16.40
2023-05-04T07:50:47.761Z,16.50
2023-05-04T07:53:18.057Z,16.60
2023-05-04T07:55:48.726Z,16.60
2023-05-04T07:58:17.946Z,16.80
2023-05-04T08:00:47.292Z,16.80
2023-05-04T08:03:16.809Z,17.00
2023-05-04T08:05:46.291Z,17.10
2023-05-04T08:08:15.625Z,17.20
2023-05-04T08:10:44.883Z,17.30
2023-05-04T08:13:15.941Z,17.30
2023-05-04T08:15:45.126Z,17.30
2023-05-04T08:18:14.715Z,17.40
2023-05-04T08:20:44.040Z,17.50
2023-05-04T08:23:13.248Z,17.60
2023-05-04T08:25:42.850Z,17.70
2023-05-04T08:28:12.088Z,17.80
2023-05-04T08:30:46.055Z,17.90
2023-05-04T08:33:26.705Z,18.00
2023-05-04T08:35:56.207Z,18.10
2023-05-04T08:38:25.717Z,18.20
2023-05-04T08:40:55.995Z,18.30
2023-05-04T08:43:25.288Z,18.30
2023-05-04T08:45:56.239Z,18.40
2023-05-04T08:48:25.659Z,18.40
2023-05-04T08:50:55.278Z,18.50
2023-05-04T08:53:25.835Z,18.60
2023-05-04T08:55:57.003Z,18.70
2023-05-04T08:58:28.583Z,18.80
2023-05-04T09:01:02.076Z,18.90
2023-05-04T09:03:31.915Z,19.00
2023-05-04T09:06:02.076Z,19.00
2023-05-04T09:08:31.412Z,19.10
2023-05-04T09:11:00.931Z,19.20
2023-05-04T09:13:30.251Z,19.20
2023-05-04T09:16:01.272Z,19.20
2023-05-04T09:18:40.696Z,19.20
2023-05-04T09:21:10.644Z,19.30
2023-05-04T09:23:49.737Z,19.40
2023-05-04T09:26:28.958Z,19.40
2023-05-04T09:28:58.762Z,19.50
2023-05-04T09:31:29.422Z,19.50
2023-05-04T09:33:58.927Z,19.60
2023-05-04T09:36:28.589Z,19.60
2023-05-04T09:38:57.951Z,19.60
2023-05-04T09:41:33.680Z,19.60
2023-05-04T09:44:03.380Z,19.70
2023-05-04T09:46:36.358Z,19.80
2023-05-04T09:49:06.384Z,19.80
2023-05-04T09:51:36.487Z,19.90
2023-05-04T09:54:06.435Z,19.90
2023-05-04T09:56:45.539Z,20.00
2023-05-04T09:59:15.634Z,20.10
2023-05-04T10:01:47.512Z,20.10
2023-05-04T10:04:20.457Z,20.10
2023-05-04T10:07:11.030Z,20.20
2023-05-04T10:09:41.177Z,20.20
2023-05-04T10:12:10.761Z,20.30
2023-05-04T10:14:40.256Z,20.30
2023-05-04T10:17:22.006Z,20.40
2023-05-04T10:20:05.896Z,20.40
2023-05-04T10:22:49.897Z,20.40
2023-05-04T10:25:42.583Z,20.50
2023-05-04T10:28:25.093Z,20.50
2023-05-04T10:30:58.733Z,20.60
2023-05-04T10:33:40.474Z,20.60
2023-05-04T10:36:10.773Z,20.70
2023-05-04T10:38:41.366Z,20.80
2023-05-04T10:41:17.391Z,20.80
2023-05-04T10:43:49.225Z,20.90
2023-05-04T10:46:20.369Z,20.90
2023-05-04T10:48:52.242Z,20.90
2023-05-04T10:51:24.401Z,20.90
2023-05-04T10:53:55.804Z,20.90
2023-05-04T10:56:26.273Z,21.00
2023-05-04T10:58:55.992Z,21.00
2023-05-04T11:01:25.256Z,21.10
2023-05-04T11:03:56.004Z,21.20
2023-05-04T11:06:26.358Z,21.20
2023-05-04T11:09:10.484Z,21.20
2023-05-04T11:11:40.087Z,21.20
2023-05-04T11:14:10.695Z,21.20
2023-05-04T11:16:39.797Z,21.30
2023-05-04T11:19:12.405Z,21.30
2023-05-04T11:21:41.867Z,21.30
2023-05-04T11:24:11.294Z,21.40
2023-05-04T11:26:48.203Z,21.50
2023-05-04T11:29:19.339Z,21.50
2023-05-04T11:31:55.717Z,21.60
2023-05-04T11:34:26.328Z,21.60
2023-05-04T11:36:55.854Z,21.60
2023-05-04T11:39:33.580Z,21.70
2023-05-04T11:42:08.752Z,21.80
2023-05-04T11:44:38.829Z,21.80
2023-05-04T11:47:08.317Z,21.90
2023-05-04T11:49:39.516Z,22.00
2023-05-04T11:52:09.655Z,22.00
2023-05-04T11:54:42.721Z,22.10
2023-05-04T11:57:23.130Z,22.20
2023-05-04T11:59:52.770Z,22.20
2023-05-04T12:02:22.568Z,22.30
2023-05-04T12:04:54.427Z,22.40
2023-05-04T12:07:23.739Z,22.50
2023-05-04T12:09:52.966Z,22.60
2023-05-04T12:12:22.213Z,22.70
2023-05-04T12:14:52.942Z,22.80
2023-05-04T12:17:22.541Z,22.80
2023-05-04T12:19:55.271Z,22.90
2023-05-04T12:22:29.404Z,23.00
2023-05-04T12:24:59.466Z,23.00
2023-05-04T12:27:29.283Z,23.00
2023-05-04T12:29:58.588Z,23.10
2023-05-04T12:32:27.825Z,23.20
2023-05-04T12:34:58.658Z,23.20
2023-05-04T12:37:27.785Z,23.30
2023-05-04T12:39:57.249Z,23.30
2023-05-04T12:42:26.376Z,23.30
2023-05-04T12:44:55.617Z,23.30
2023-05-04T12:47:24.875Z,23.40
2023-05-04T12:49:55.950Z,23.40
2023-05-04T12:52:26.549Z,23.40
2023-05-04T12:54:55.875Z,23.50
2023-05-04T12:57:25.038Z,23.50
2023-05-04T12:59:54.335Z,23.50
2023-05-04T13:02:23.748Z,23.50
2023-05-04T13:04:53.439Z,23.60
2023-05-04T13:07:23.074Z,23.60
2023-05-04T13:09:54.032Z,23.60
2023-05-04T13:12:23.302Z,23.60
2023-05-04T13:14:55.438Z,23.60
2023-05-04T13:17:26.718Z,23.60
2023-05-04T13:19:55.977Z,23.60
2023-05-04T13:22:25.181Z,23.60
2023-05-04T13:25:06.897Z,23.60
2023-05-04T13:27:36.286Z,23.60
2023-05-04T13:30:06.275Z,23.70
2023-05-04T13:32:35.888Z,23.70
2023-05-04T13:35:05.906Z,23.70
2023-05-04T13:37:35.500Z,23.70
2023-05-04T13:40:07.053Z,23.70
2023-05-04T13:42:37.411Z,23.70
2023-05-04T13:45:08.744Z,23.70
2023-05-04T13:47:38.142Z,23.70
2023-05-04T13:50:08.865Z,23.70
2023-05-04T13:52:38.313Z,23.70
2023-05-04T13:55:09.958Z,23.70
2023-05-04T13:57:39.133Z,23.70
2023-05-04T14:00:10.040Z,23.70
2023-05-04T14:02:42.725Z,23.60
2023-05-04T14:05:12.710Z,23.70
2023-05-04T14:07:41.979Z,23.70
2023-05-04T14:10:13.070Z,23.70
2023-05-04T14:12:42.440Z,23.70
2023-05-04T14:15:12.604Z,23.70
2023-05-04T14:17:41.966Z,23.80
2023-05-04T14:20:11.561Z,23.80
2023-05-04T14:22:41.260Z,23.80
2023-05-04T14:25:12.715Z,23.80
2023-05-04T14:27:43.986Z,23.90
2023-05-04T14:30:14.416Z,23.90
2023-05-04T14:32:43.758Z,23.90
2023-05-04T14:35:13.186Z,23.90
2023-05-04T14:37:42.556Z,23.90
2023-05-04T14:40:14.023Z,23.90
2023-05-04T14:42:46.070Z,23.90
2023-05-04T14:45:16.208Z,24.00
2023-05-04T14:47:46.092Z,24.00
2023-05-04T14:50:16.011Z,24.00
2023-05-04T14:52:45.342Z,24.10
2023-05-04T14:55:15.898Z,24.10
2023-05-04T14:57:45.569Z,24.10
2023-05-04T15:00:17.367Z,24.10
2023-05-04T15:02:46.942Z,24.10
2023-05-04T15:05:17.834Z,24.10
2023-05-04T15:07:48.512Z,24.10
2023-05-04T15:10:19.616Z,24.00
2023-05-04T15:12:48.804Z,24.00
2023-05-04T15:15:19.200Z,24.00
2023-05-04T15:17:48.708Z,24.00
2023-05-04T15:20:18.368Z,24.00
2023-05-04T15:22:50.773Z,23.90
2023-05-04T15:25:25.131Z,23.90
2023-05-04T15:27:54.698Z,23.90
2023-05-04T15:30:24.295Z,23.80
2023-05-04T15:32:53.532Z,23.80
2023-05-04T15:35:23.234Z,23.80
2023-05-04T15:37:53.500Z,23.80
2023-05-04T15:40:24.321Z,23.70
2023-05-04T15:42:53.667Z,23.70
2023-05-04T15:45:23.291Z,23.70
2023-05-04T15:47:53.529Z,23.70
2023-05-04T15:50:22.979Z,23.70
2023-05-04T15:52:53.461Z,23.60
2023-05-04T15:55:26.524Z,23.60
2023-05-04T15:57:55.755Z,23.60
2023-05-04T16:00:25.466Z,23.60
2023-05-04T16:02:54.859Z,23.60
2023-05-04T16:05:25.942Z,23.60
2023-05-04T16:07:55.436Z,23.50
2023-05-04T16:10:26.164Z,23.50
2023-05-04T16:12:55.259Z,23.50
2023-05-04T16:15:24.768Z,23.50
2023-05-04T16:17:54.110Z,23.50
2023-05-04T16:20:23.686Z,23.50
2023-05-04T16:22:52.925Z,23.50
2023-05-04T16:25:22.347Z,23.50
2023-05-04T16:27:53.359Z,23.50
2023-05-04T16:30:22.687Z,23.50
2023-05-04T16:32:51.959Z,23.50
2023-05-04T16:35:21.336Z,23.50
2023-05-04T16:37:50.665Z,23.50
2023-05-04T16:40:20.474Z,23.50
2023-05-04T16:42:49.935Z,23.50
2023-05-04T16:45:20.745Z,23.50
2023-05-04T16:47:49.920Z,23.50
2023-05-04T16:50:19.387Z,23.40
2023-05-04T16:52:48.721Z,23.40
2023-05-04T16:55:17.922Z,23.40
2023-05-04T16:57:47.482Z,23.40
2023-05-04T17:00:17.496Z,23.40
2023-05-04T17:02:48.670Z,23.40
2023-05-04T17:05:19.220Z,23.40
2023-05-04T17:07:48.587Z,23.40
2023-05-04T17:10:18.833Z,23.40
2023-05-04T17:12:48.031Z,23.30
2023-05-04T17:15:17.482Z,23.30
2023-05-04T17:17:48.270Z,23.30
2023-05-04T17:20:17.715Z,23.30
2023-05-04T17:22:47.770Z,23.30
2023-05-04T17:25:17.302Z,23.20
2023-05-04T17:27:46.999Z,23.20
2023-05-04T17:30:16.447Z,23.20
2023-05-04T17:32:48.624Z,23.10
2023-05-04T17:35:25.367Z,23.10
2023-05-04T17:37:58.872Z,23.10
2023-05-04T17:40:29.215Z,23.10
2023-05-04T17:42:58.272Z,23.00
2023-05-04T17:45:27.784Z,23.00
2023-05-04T17:47:58.298Z,23.00
2023-05-04T17:50:27.694Z,22.90
2023-05-04T17:52:57.848Z,22.90
2023-05-04T17:55:27.626Z,22.90
2023-05-04T17:57:56.755Z,22.80
2023-05-04T18:00:26.099Z,22.80
2023-05-04T18:02:55.440Z,22.70
2023-05-04T18:05:26.268Z,22.70
2023-05-04T18:07:56.858Z,22.60
2023-05-04T18:10:26.960Z,22.60
2023-05-04T18:12:56.529Z,22.50
2023-05-04T18:15:25.937Z,22.50
2023-05-04T18:17:55.156Z,22.40
2023-05-04T18:20:25.776Z,22.40
2023-05-04T18:22:54.860Z,22.30
2023-05-04T18:25:24.880Z,22.20
2023-05-04T18:27:53.999Z,22.20
2023-05-04T18:30:23.083Z,22.10
2023-05-04T18:32:52.506Z,22.10
2023-05-04T18:35:22.471Z,22.00
2023-05-04T18:37:52.936Z,22.00
2023-05-04T18:40:23.831Z,21.90
2023-05-04T18:42:52.925Z,21.90
2023-05-04T18:45:27.490Z,21.80
2023-05-04T18:47:58.524Z,21.70
2023-05-04T18:50:30.904Z,21.70
2023-05-04T18:53:01.387Z,21.60
2023-05-04T18:55:30.609Z,21.60
2023-05-04T18:58:01.062Z,21.50
2023-05-04T19:00:46.393Z,21.50
2023-05-04T19:03:16.116Z,21.40
2023-05-04T19:05:45.616Z,21.30
2023-05-04T19:08:16.104Z,21.30
2023-05-04T19:10:45.442Z,21.20
2023-05-04T19:13:15.803Z,21.20
2023-05-04T19:15:46.139Z,21.10
2023-05-04T19:18:15.944Z,21.00
2023-05-04T19:20:45.492Z,21.00
2023-05-04T19:23:16.206Z,20.90
2023-05-04T19:25:45.709Z,20.90
2023-05-04T19:28:15.225Z,20.80
2023-05-04T19:30:44.490Z,20.80
2023-05-04T19:33:14.019Z,20.70
2023-05-04T19:35:43.526Z,20.70
2023-05-04T19:38:12.692Z,20.60
2023-05-04T19:40:43.264Z,20.60
2023-05-04T19:43:12.359Z,20.50
2023-05-04T19:45:42.150Z,20.50
2023-05-04T19:48:13.413Z,20.40
2023-05-04T19:50:43.012Z,20.40
2023-05-04T19:53:12.356Z,20.30
2023-05-04T19:55:43.118Z,20.30
2023-05-04T19:58:12.618Z,20.20
2023-05-04T20:00:42.367Z,20.20
2023-05-04T20:03:11.772Z,20.20
2023-05-04T20:05:41.093Z,20.10
2023-05-04T20:08:10.820Z,20.00
2023-05-04T20:10:41.063Z,20.00
2023-05-04T20:13:11.626Z,20.00
2023-05-04T20:15:40.810Z,19.90
2023-05-04T20:18:10.090Z,19.90
2023-05-04T20:20:39.374Z,19.80
2023-05-04T20:23:08.643Z,19.80
2023-05-04T20:25:38.394Z,19.70
2023-05-04T20:28:07.602Z,19.70
2023-05-04T20:30:38.404Z,19.60
2023-05-04T20:33:07.665Z,19.60
2023-05-04T20:35:36.828Z,19.50
2023-05-04T20:38:05.996Z,19.50
2023-05-04T20:40:36.122Z,19.50
2023-05-04T20:43:05.258Z,19.50
2023-05-04T20:45:34.537Z,19.40
2023-05-04T20:48:05.627Z,19.40
2023-05-04T20:50:35.215Z,19.30
2023-05-04T20:53:04.703Z,19.30
2023-05-04T20:55:33.933Z,19.30
2023-05-04T20:58:03.135Z,19.20
2023-05-04T21:00:33.518Z,19.10
2023-05-04T21:03:04.463Z,19.10
2023-05-04T21:05:33.492Z,19.00
2023-05-04T21:08:02.671Z,19.00
2023-05-04T21:10:31.634Z,18.90
2023-05-04T21:13:00.959Z,18.90
2023-05-04T21:15:30.288Z,18.90
2023-05-04T21:17:59.592Z,18.80
2023-05-04T21:20:30.276Z,18.80
2023-05-04T21:22:59.879Z,18.80
2023-05-04T21:25:29.360Z,18.70
2023-05-04T21:27:58.680Z,18.70
2023-05-04T21:30:28.155Z,18.60
2023-05-04T21:32:57.599Z,18.60
2023-05-04T21:35:31.681Z,18.60
2023-05-04T21:38:01.028Z,18.60
2023-05-04T21:40:30.667Z,18.50
2023-05-04T21:43:00.264Z,18.50
2023-05-04T21:45:32.040Z,18.50
2023-05-04T21:48:03.636Z,18.40
2023-05-04T21:50:34.287Z,18.50
2023-05-04T21:53:03.543Z,18.40
2023-05-04T21:55:32.832Z,18.40
2023-05-04T21:58:02.835Z,18.30
2023-05-04T22:00:33.084Z,18.30
2023-05-04T22:03:02.503Z,18.30
2023-05-04T22:05:31.729Z,18.20
2023-05-04T22:08:02.937Z,18.20
2023-05-04T22:10:32.193Z,18.10
2023-05-04T22:13:01.291Z,18.10
2023-05-04T22:15:42.067Z,18.00
2023-05-04T22:18:16.057Z,18.00
2023-05-04T22:20:46.040Z,18.00
2023-05-04T22:23:16.800Z,17.90
2023-05-04T22:25:46.300Z,17.80
2023-05-04T22:28:15.596Z,17.80
2023-05-04T22:30:44.876Z,17.70
2023-05-04T22:33:14.037Z,17.70
2023-05-04T22:35:43.285Z,17.60
2023-05-04T22:38:14.263Z,17.60
2023-05-04T22:40:45.045Z,17.60
2023-05-04T22:43:14.202Z,17.50
2023-05-04T22:45:43.485Z,17.50
2023-05-04T22:48:14.135Z,17.50
2023-05-04T22:50:43.623Z,17.40
2023-05-04T22:53:14.541Z,17.40
2023-05-04T22:55:45.389Z,17.40
2023-05-04T22:58:14.927Z,17.30
2023-05-04T23:00:44.077Z,17.30
2023-05-04T23:03:13.319Z,17.30
2023-05-04T23:05:42.273Z,17.20
2023-05-04T23:08:11.451Z,17.20
2023-05-04T23:10:44.886Z,17.20
2023-05-04T23:13:15.373Z,17.10
2023-05-04T23:15:44.437Z,17.10
2023-05-04T23:18:13.890Z,17.00
2023-05-04T23:20:42.929Z,17.00
2023-05-04T23:23:12.519Z,16.90
2023-05-04T23:25:42.190Z,16.90
2023-05-04T23:28:11.260Z,16.90
2023-05-04T23:30:43.308Z,16.90
2023-05-04T23:33:12.320Z,16.80
2023-05-04T23:35:41.266Z,16.80
2023-05-04T23:38:10.315Z,16.80
2023-05-04T23:40:39.463Z,16.70
2023-05-04T23:43:08.801Z,16.70
2023-05-04T23:45:38.140Z,16.60
2023-05-04T23:48:08.946Z,16.60
2023-05-04T23:50:38.311Z,16.50
2023-05-04T23:53:07.352Z,16.50
2023-05-04T23:55:36.904Z,16.40
2023-05-04T23:58:06.361Z,16.40
